Time;durP1;ratioP1;P1;durP2;ratioP2;P2;SDS_P1;SDS_P2;PMS_P1;PMS_P2;Temp;Humidity;BMP_temperature;BMP_pressure;BME280_temperature;BME280_humidity;BME280_pressure;Samples;Min_cycle;Max_cycle;Signal;HPM_P1;HPM_P2
2022/10/29 00:01:38;;;;;;;10.20;3.40;;;;;;;;;;4990155;28;20251;-63
2022/10/29 00:04:06;;;;;;;8.00;3.47;;;;;;;;;;4986360;28;20211;-64
2022/10/29 00:06:33;;;;;;;7.33;3.47;;;;;;;;;;4987703;28;20200;-64
2022/10/29 00:09:00;;;;;;;12.53;3.73;;;;;;;;;;4989868;28;20254;-64
2022/10/29 00:11:28;;;;;;;6.00;3.40;;;;;;;;;;4992259;28;20650;-64
2022/10/29 00:13:59;;;;;;;6.43;3.20;;;;;;;;;;4986416;28;20314;-64
2022/10/29 00:16:28;;;;;;;7.57;3.72;;;;;;;;;;4999866;28;20343;-66
2022/10/29 00:18:56;;;;;;;9.20;3.80;;;;;;;;;;4982822;28;20219;-63
2022/10/29 00:21:24;;;;;;;11.63;4.03;;;;;;;;;;4986135;28;20350;-64
2022/10/29 00:23:52;;;;;;;13.03;4.80;;;;;;;;;;4989195;28;20290;-64
2022/10/29 00:26:20;;;;;;;7.33;4.17;;;;;;;;;;4991728;28;20324;-65
2022/10/29 00:28:51;;;;;;;8.93;4.13;;;;;;;;;;5010418;28;20220;-65
2022/10/29 00:31:19;;;;;;;6.53;4.20;;;;;;;;;;4993571;28;20212;-64
2022/10/29 00:33:46;;;;;;;6.00;3.90;;;;;;;;;;4993583;28;20211;-64
2022/10/29 00:36:18;;;;;;;10.83;4.67;;;;;;;;;;4985547;28;20266;-64
2022/10/29 00:38:45;;;;;;;8.43;4.17;;;;;;;;;;4991929;28;20251;-64
2022/10/29 00:41:14;;;;;;;10.60;4.53;;;;;;;;;;4989739;28;20266;-64
2022/10/29 00:43:43;;;;;;;7.93;3.90;;;;;;;;;;4989931;28;20204;-64
2022/10/29 00:46:16;;;;;;;8.70;4.00;;;;;;;;;;4993042;28;20253;-64
2022/10/29 00:48:46;;;;;;;9.00;4.13;;;;;;;;;;4988134;28;20255;-64
2022/10/29 00:51:15;;;;;;;8.40;3.77;;;;;;;;;;4992059;28;20791;-64
2022/10/29 00:53:44;;;;;;;8.97;3.77;;;;;;;;;;4984900;28;20286;-65
2022/10/29 00:56:12;;;;;;;7.87;4.63;;;;;;;;;;4992080;28;20728;-64
2022/10/29 00:58:40;;;;;;;8.23;4.43;;;;;;;;;;4987871;28;20666;-63
2022/10/29 01:01:07;;;;;;;10.27;4.43;;;;;;;;;;4993101;28;20230;-64
2022/10/29 01:03:34;;;;;;;7.17;4.40;;;;;;;;;;5005079;28;20196;-63
2022/10/29 01:06:02;;;;;;;10.07;4.40;;;;;;;;;;4994695;28;20295;-64
2022/10/29 01:08:30;;;;;;;10.47;4.40;;;;;;;;;;4991859;28;20246;-63
2022/10/29 01:11:16;;;;;;;7.87;4.27;;;;;;;;;;4993161;28;20290;-63
2022/10/29 01:14:06;;;;;;;11.23;3.40;;;;;;;;;;5006982;28;20203;-63
2022/10/29 01:16:46;;;;;;;8.20;4.07;;;;;;;;;;4989165;28;20303;-64
2022/10/29 01:19:22;;;;;;;7.27;3.93;;;;;;;;;;4983470;28;20227;-64
2022/10/29 01:21:52;;;;;;;6.30;3.40;;;;;;;;;;4993998;28;20230;-64
2022/10/29 01:24:22;;;;;;;8.90;3.63;;;;;;;;;;5003941;28;20294;-64
2022/10/29 01:26:57;;;;;;;8.87;3.57;;;;;;;;;;4988201;28;20210;-64
2022/10/29 01:29:31;;;;;;;7.87;3.87;;;;;;;;;;4990759;28;20223;-64
2022/10/29 01:32:01;;;;;;;8.07;3.53;;;;;;;;;;4982815;28;20299;-64
2022/10/29 01:34:38;;;;;;;8.93;3.60;;;;;;;;;;4987263;28;20200;-63
2022/10/29 01:37:19;;;;;;;7.87;4.07;;;;;;;;;;4987175;28;20207;-63
2022/10/29 01:39:50;;;;;;;7.87;4.07;;;;;;;;;;4984990;28;20255;-63
2022/10/29 01:42:31;;;;;;;9.20;4.23;;;;;;;;;;4980353;28;20803;-64
2022/10/29 01:45:10;;;;;;;10.87;4.90;;;;;;;;;;4968390;28;20704;-64
2022/10/29 01:47:41;;;;;;;11.70;5.60;;;;;;;;;;4976300;28;20289;-63
2022/10/29 01:50:09;;;;;;;7.17;4.03;;;;;;;;;;4970835;28;20230;-64
2022/10/29 01:52:38;;;;;;;6.43;3.70;;;;;;;;;;4983445;28;20765;-63
2022/10/29 01:55:06;;;;;;;9.63;3.77;;;;;;;;;;4990143;28;20294;-64
2022/10/29 01:57:35;;;;;;;8.70;3.63;;;;;;;;;;4988653;28;20298;-65
2022/10/29 02:00:02;;;;;;;10.47;3.70;;;;;;;;;;4989065;28;20318;-64
2022/10/29 02:02:45;;;;;;;8.57;3.17;;;;;;;;;;4981872;28;20370;-63
2022/10/29 02:05:31;;;;;;;10.00;3.17;;;;;;;;;;4973116;28;20210;-64
2022/10/29 02:08:12;;;;;;;8.00;3.20;;;;;;;;;;4987816;28;20250;-64
2022/10/29 02:10:58;;;;;;;8.87;3.77;;;;;;;;;;5003294;28;20288;-64
2022/10/29 02:13:30;;;;;;;8.37;3.40;;;;;;;;;;4985088;28;23659;-64
2022/10/29 02:15:58;;;;;;;8.77;3.40;;;;;;;;;;4984614;28;20292;-63
2022/10/29 02:18:25;;;;;;;7.40;3.60;;;;;;;;;;4991145;28;20301;-64
2022/10/29 02:20:52;;;;;;;12.57;3.40;;;;;;;;;;5001996;28;20239;-64
2022/10/29 02:23:20;;;;;;;9.83;3.37;;;;;;;;;;4988202;28;20246;-64
2022/10/29 02:25:47;;;;;;;10.70;3.47;;;;;;;;;;5008751;28;20330;-63
2022/10/29 02:28:15;;;;;;;10.30;3.10;;;;;;;;;;4991273;28;20317;-64
2022/10/29 02:30:42;;;;;;;8.30;3.40;;;;;;;;;;4990974;28;20207;-64
2022/10/29 02:33:10;;;;;;;7.93;3.37;;;;;;;;;;4988366;28;20294;-64
2022/10/29 02:35:37;;;;;;;9.17;3.70;;;;;;;;;;4986998;28;20236;-64
2022/10/29 02:38:04;;;;;;;10.60;3.37;;;;;;;;;;4989994;28;20250;-64
2022/10/29 02:40:31;;;;;;;8.53;3.53;;;;;;;;;;4990062;28;20254;-64
2022/10/29 02:42:59;;;;;;;7.77;3.00;;;;;;;;;;5009461;28;20223;-64
2022/10/29 02:45:27;;;;;;;7.40;3.30;;;;;;;;;;4991509;28;20299;-64
2022/10/29 02:47:54;;;;;;;8.80;3.30;;;;;;;;;;4992571;28;20250;-64
2022/10/29 02:50:22;;;;;;;7.63;3.47;;;;;;;;;;5005424;28;20277;-64
2022/10/29 02:52:49;;;;;;;7.37;3.20;;;;;;;;;;4985471;28;20287;-65
2022/10/29 02:55:17;;;;;;;10.17;3.47;;;;;;;;;;4991170;28;20222;-62
2022/10/29 02:57:47;;;;;;;10.20;3.70;;;;;;;;;;4987599;28;20621;-64
2022/10/29 03:00:15;;;;;;;8.17;3.27;;;;;;;;;;5007559;28;20239;-63
2022/10/29 03:02:42;;;;;;;8.77;3.40;;;;;;;;;;5006006;28;20274;-64
2022/10/29 03:05:10;;;;;;;12.20;3.70;;;;;;;;;;5005638;28;20208;-64
2022/10/29 03:07:38;;;;;;;8.80;3.87;;;;;;;;;;4984370;28;20303;-64
2022/10/29 03:10:06;;;;;;;6.57;4.00;;;;;;;;;;4998783;28;20219;-64
2022/10/29 03:12:34;;;;;;;7.67;3.57;;;;;;;;;;5004490;28;20251;-63
2022/10/29 03:15:01;;;;;;;8.83;3.67;;;;;;;;;;4985065;28;20702;-62
2022/10/29 03:17:28;;;;;;;9.23;3.43;;;;;;;;;;4984216;28;20298;-63
2022/10/29 03:19:56;;;;;;;7.40;3.80;;;;;;;;;;4989418;28;20306;-64
2022/10/29 03:22:23;;;;;;;6.97;3.37;;;;;;;;;;4983356;28;20235;-64
2022/10/29 03:24:50;;;;;;;7.10;2.97;;;;;;;;;;4982572;28;20222;-64
2022/10/29 03:27:18;;;;;;;8.07;3.80;;;;;;;;;;5005390;28;20231;-66
2022/10/29 03:29:45;;;;;;;6.57;2.80;;;;;;;;;;4986583;28;20258;-64
2022/10/29 03:32:13;;;;;;;4.43;3.50;;;;;;;;;;4986712;28;20215;-64
2022/10/29 03:34:40;;;;;;;7.50;3.60;;;;;;;;;;4982678;28;20649;-65
2022/10/29 03:37:07;;;;;;;4.87;3.33;;;;;;;;;;4979663;28;20244;-63
2022/10/29 03:39:34;;;;;;;9.47;3.90;;;;;;;;;;4975055;28;21089;-64
2022/10/29 03:42:02;;;;;;;7.77;3.40;;;;;;;;;;4983706;28;20667;-64
2022/10/29 03:44:30;;;;;;;6.80;3.80;;;;;;;;;;5006582;28;20208;-65
2022/10/29 03:46:58;;;;;;;10.63;2.90;;;;;;;;;;4975847;28;20328;-64
2022/10/29 03:49:25;;;;;;;8.07;3.00;;;;;;;;;;4993889;28;20247;-63
2022/10/29 03:51:52;;;;;;;7.70;3.00;;;;;;;;;;4969840;28;20212;-63
2022/10/29 03:54:20;;;;;;;6.53;3.00;;;;;;;;;;4978577;28;20241;-63
2022/10/29 03:56:47;;;;;;;7.60;3.53;;;;;;;;;;4960772;28;20203;-63
2022/10/29 03:59:14;;;;;;;8.03;3.20;;;;;;;;;;4966962;28;20233;-63
2022/10/29 04:01:41;;;;;;;7.83;3.23;;;;;;;;;;4971151;28;20530;-65
2022/10/29 04:04:10;;;;;;;8.13;3.60;;;;;;;;;;4970141;28;20219;-63
2022/10/29 04:06:37;;;;;;;5.90;3.27;;;;;;;;;;4990073;28;20337;-64
2022/10/29 04:09:04;;;;;;;6.43;3.77;;;;;;;;;;4965897;28;20230;-63
2022/10/29 04:11:33;;;;;;;10.88;3.33;;;;;;;;;;4969983;28;20210;-65
2022/10/29 04:14:00;;;;;;;5.30;2.97;;;;;;;;;;4972927;28;20306;-63
2022/10/29 04:16:27;;;;;;;8.25;2.83;;;;;;;;;;4971472;28;22919;-64
2022/10/29 04:18:55;;;;;;;6.40;3.00;;;;;;;;;;4965422;28;20234;-64
2022/10/29 04:21:22;;;;;;;6.73;3.87;;;;;;;;;;4971019;28;20736;-64
2022/10/29 04:24:10;;;;;;;12.00;3.38;;;;;;;;;;4971164;28;20239;-62
2022/10/29 04:26:57;;;;;;;9.83;3.47;;;;;;;;;;4970229;28;20208;-62
2022/10/29 04:29:45;;;;;;;10.10;3.73;;;;;;;;;;4972012;28;20305;-63
2022/10/29 04:32:12;;;;;;;12.97;4.90;;;;;;;;;;4973739;28;20196;-61
2022/10/29 04:34:39;;;;;;;13.80;5.07;;;;;;;;;;4967098;28;20244;-63
2022/10/29 04:37:07;;;;;;;12.60;5.23;;;;;;;;;;4969288;28;20298;-64
2022/10/29 04:39:34;;;;;;;9.93;5.17;;;;;;;;;;4982658;28;20366;-63
2022/10/29 04:42:01;;;;;;;14.30;5.67;;;;;;;;;;4988539;28;20799;-65
2022/10/29 04:44:29;;;;;;;12.57;6.40;;;;;;;;;;4989705;28;20294;-64
2022/10/29 04:46:56;;;;;;;11.70;5.65;;;;;;;;;;4985169;28;21228;-64
2022/10/29 04:49:23;;;;;;;11.15;5.32;;;;;;;;;;4984362;28;20215;-63
2022/10/29 04:51:51;;;;;;;12.85;5.50;;;;;;;;;;4992321;28;20203;-64
2022/10/29 04:54:18;;;;;;;10.75;4.60;;;;;;;;;;4994516;28;20299;-63
2022/10/29 04:56:46;;;;;;;11.60;6.35;;;;;;;;;;4991884;28;20684;-65
2022/10/29 04:59:13;;;;;;;8.27;4.82;;;;;;;;;;4976133;28;20402;-64
2022/10/29 05:01:40;;;;;;;13.43;3.97;;;;;;;;;;4970496;28;20212;-62
2022/10/29 05:04:08;;;;;;;10.65;3.90;;;;;;;;;;4965244;28;20230;-61
2022/10/29 05:06:35;;;;;;;8.57;3.78;;;;;;;;;;4967181;28;21653;-61
2022/10/29 05:09:03;;;;;;;8.95;4.07;;;;;;;;;;4969257;28;21287;-64
2022/10/29 05:11:30;;;;;;;9.60;3.85;;;;;;;;;;4961797;28;20605;-64
2022/10/29 05:13:57;;;;;;;7.35;3.72;;;;;;;;;;4964036;28;20378;-62
2022/10/29 05:16:25;;;;;;;12.50;4.47;;;;;;;;;;4987741;28;20211;-61
2022/10/29 05:18:52;;;;;;;9.05;3.78;;;;;;;;;;4975620;28;20309;-63
2022/10/29 05:21:19;;;;;;;11.15;3.67;;;;;;;;;;4983357;28;20346;-63
2022/10/29 05:23:47;;;;;;;8.55;3.65;;;;;;;;;;4969170;28;20226;-64
2022/10/29 05:26:14;;;;;;;8.52;3.70;;;;;;;;;;4960913;28;20215;-61
2022/10/29 05:28:42;;;;;;;8.93;3.83;;;;;;;;;;4991049;28;20231;-64
2022/10/29 05:31:09;;;;;;;12.60;4.80;;;;;;;;;;4979439;28;20203;-63
2022/10/29 05:33:37;;;;;;;7.95;3.90;;;;;;;;;;4967923;28;20256;-64
2022/10/29 05:36:07;;;;;;;10.70;4.15;;;;;;;;;;4968799;28;20707;-63
2022/10/29 05:38:35;;;;;;;9.23;3.60;;;;;;;;;;4975036;28;20659;-63
2022/10/29 05:41:02;;;;;;;11.80;4.00;;;;;;;;;;4972207;28;22293;-63
2022/10/29 05:43:29;;;;;;;4.53;3.10;;;;;;;;;;4969219;28;20224;-62
2022/10/29 05:45:57;;;;;;;8.88;3.60;;;;;;;;;;4981817;28;20215;-64
2022/10/29 05:48:27;;;;;;;7.97;3.85;;;;;;;;;;4967988;28;20207;-64
2022/10/29 05:50:56;;;;;;;7.22;4.03;;;;;;;;;;4966862;28;20685;-65
2022/10/29 05:53:25;;;;;;;10.98;3.95;;;;;;;;;;4990296;28;20208;-62
2022/10/29 05:55:52;;;;;;;13.02;4.80;;;;;;;;;;5005570;28;20276;-61
2022/10/29 05:58:20;;;;;;;9.90;4.18;;;;;;;;;;5005156;28;20307;-64
2022/10/29 06:00:47;;;;;;;8.40;4.30;;;;;;;;;;4991880;28;20661;-64
2022/10/29 06:03:18;;;;;;;9.90;4.65;;;;;;;;;;4985019;28;20302;-65
2022/10/29 06:05:46;;;;;;;11.53;4.67;;;;;;;;;;4986098;28;20298;-64
2022/10/29 06:08:14;;;;;;;13.20;4.95;;;;;;;;;;4983828;28;20795;-64
2022/10/29 06:10:41;;;;;;;8.23;4.50;;;;;;;;;;4969153;28;20246;-63
2022/10/29 06:13:09;;;;;;;5.38;4.00;;;;;;;;;;4959122;28;20209;-63
2022/10/29 06:15:37;;;;;;;8.80;4.50;;;;;;;;;;4946100;28;20212;-63
2022/10/29 06:18:05;;;;;;;9.38;3.88;;;;;;;;;;4962274;28;20227;-63
2022/10/29 06:20:33;;;;;;;10.90;3.95;;;;;;;;;;4982330;28;20238;-63
2022/10/29 06:23:00;;;;;;;9.93;4.10;;;;;;;;;;4964768;28;20347;-62
2022/10/29 06:25:28;;;;;;;10.10;4.27;;;;;;;;;;4966781;28;20309;-64
2022/10/29 06:28:02;;;;;;;8.18;4.13;;;;;;;;;;4982074;28;20199;-62
2022/10/29 06:30:30;;;;;;;11.60;4.10;;;;;;;;;;4979813;28;20797;-65
2022/10/29 06:32:59;;;;;;;5.97;3.65;;;;;;;;;;5000366;28;20243;-64
2022/10/29 06:35:27;;;;;;;8.82;4.25;;;;;;;;;;4984015;28;20211;-64
2022/10/29 06:37:57;;;;;;;12.82;4.72;;;;;;;;;;4996667;28;20238;-62
2022/10/29 06:40:26;;;;;;;6.38;3.80;;;;;;;;;;4978055;28;20237;-64
2022/10/29 06:43:03;;;;;;;10.57;4.45;;;;;;;;;;4983375;28;20311;-63
2022/10/29 06:45:31;;;;;;;9.60;4.07;;;;;;;;;;4989398;28;20298;-65
2022/10/29 06:47:58;;;;;;;11.20;5.00;;;;;;;;;;4997934;28;20286;-64
2022/10/29 06:50:26;;;;;;;8.63;4.18;;;;;;;;;;4980927;28;20223;-63
2022/10/29 06:53:00;;;;;;;9.77;4.25;;;;;;;;;;4977242;28;20238;-63
2022/10/29 06:55:27;;;;;;;8.10;4.18;;;;;;;;;;4976849;28;21741;-64
2022/10/29 06:57:56;;;;;;;7.82;3.78;;;;;;;;;;4987792;28;20211;-64
2022/10/29 07:00:24;;;;;;;9.80;4.00;;;;;;;;;;4996435;28;20899;-64
2022/10/29 07:02:51;;;;;;;6.93;4.03;;;;;;;;;;4981283;28;20685;-64
2022/10/29 07:05:19;;;;;;;8.10;4.45;;;;;;;;;;4982629;28;20223;-64
2022/10/29 07:07:47;;;;;;;14.20;4.55;;;;;;;;;;4977861;28;20203;-64
2022/10/29 07:10:14;;;;;;;9.45;4.47;;;;;;;;;;4979059;28;20722;-64
2022/10/29 07:12:42;;;;;;;11.23;4.07;;;;;;;;;;5003060;28;20204;-64
2022/10/29 07:15:11;;;;;;;6.53;3.80;;;;;;;;;;4987153;28;20290;-64
2022/10/29 07:17:39;;;;;;;7.97;4.30;;;;;;;;;;4979007;28;20846;-65
2022/10/29 07:20:07;;;;;;;6.10;3.58;;;;;;;;;;4979620;28;20223;-63
2022/10/29 07:22:35;;;;;;;12.25;3.97;;;;;;;;;;4974316;28;20235;-64
2022/10/29 07:25:02;;;;;;;6.63;2.95;;;;;;;;;;4988497;28;20713;-64
2022/10/29 07:27:29;;;;;;;6.80;3.20;;;;;;;;;;4975846;28;20686;-64
2022/10/29 07:29:57;;;;;;;7.00;3.45;;;;;;;;;;4973471;28;20708;-64
2022/10/29 07:32:24;;;;;;;8.30;3.83;;;;;;;;;;4968753;28;20254;-64
2022/10/29 07:34:51;;;;;;;12.80;3.17;;;;;;;;;;4972068;28;20290;-64
2022/10/29 07:37:19;;;;;;;10.13;3.00;;;;;;;;;;4964391;28;20211;-64
2022/10/29 07:39:46;;;;;;;8.50;3.38;;;;;;;;;;4993705;28;20318;-63
2022/10/29 07:42:14;;;;;;;11.80;3.50;;;;;;;;;;4995243;28;20294;-65
2022/10/29 07:44:41;;;;;;;8.85;3.42;;;;;;;;;;4965018;28;20223;-65
2022/10/29 07:47:08;;;;;;;11.23;4.05;;;;;;;;;;4968761;28;20211;-63
2022/10/29 07:49:36;;;;;;;12.18;3.60;;;;;;;;;;4986270;28;20227;-63
2022/10/29 07:52:04;;;;;;;7.60;3.38;;;;;;;;;;4984594;28;20203;-64
2022/10/29 07:54:31;;;;;;;8.73;3.40;;;;;;;;;;4972080;28;20218;-64
2022/10/29 07:56:58;;;;;;;8.93;3.03;;;;;;;;;;4975916;28;20654;-65
2022/10/29 07:59:26;;;;;;;6.75;3.30;;;;;;;;;;4974017;28;20608;-64
2022/10/29 08:01:53;;;;;;;7.80;3.33;;;;;;;;;;4976210;28;20212;-61
2022/10/29 08:04:21;;;;;;;9.65;2.75;;;;;;;;;;4964543;28;20325;-63
2022/10/29 08:06:48;;;;;;;9.93;3.08;;;;;;;;;;4978076;28;20889;-62
2022/10/29 08:09:15;;;;;;;11.18;3.17;;;;;;;;;;4976316;28;20310;-63
2022/10/29 08:11:43;;;;;;;11.07;3.40;;;;;;;;;;4977275;28;20209;-63
2022/10/29 08:14:11;;;;;;;7.32;2.92;;;;;;;;;;4975845;28;20211;-64
2022/10/29 08:16:38;;;;;;;8.50;2.85;;;;;;;;;;4976038;28;20251;-65
2022/10/29 08:19:06;;;;;;;8.20;3.20;;;;;;;;;;4980551;28;20270;-65
2022/10/29 08:21:33;;;;;;;12.73;4.78;;;;;;;;;;4976103;28;20235;-65
2022/10/29 08:24:01;;;;;;;15.60;4.13;;;;;;;;;;4980568;28;20235;-64
2022/10/29 08:26:28;;;;;;;6.20;3.00;;;;;;;;;;4975067;28;20737;-62
2022/10/29 08:28:55;;;;;;;9.75;3.17;;;;;;;;;;4976450;28;20345;-63
2022/10/29 08:31:22;;;;;;;8.38;3.90;;;;;;;;;;4974036;28;20239;-65
2022/10/29 08:33:50;;;;;;;13.20;5.10;;;;;;;;;;4978238;28;20214;-64
2022/10/29 08:36:17;;;;;;;8.23;4.50;;;;;;;;;;4976083;28;20211;-64
2022/10/29 08:38:46;;;;;;;11.43;4.80;;;;;;;;;;4973451;28;20325;-64
2022/10/29 08:41:26;;;;;;;13.13;4.30;;;;;;;;;;4979854;28;20231;-64
2022/10/29 08:43:53;;;;;;;10.63;4.35;;;;;;;;;;4974805;28;20231;-64
2022/10/29 08:46:24;;;;;;;7.38;2.97;;;;;;;;;;4980998;28;20220;-64
2022/10/29 08:48:54;;;;;;;12.10;4.15;;;;;;;;;;4982263;28;20258;-63
2022/10/29 08:51:38;;;;;;;10.13;3.13;;;;;;;;;;4986976;28;20247;-63
2022/10/29 08:54:11;;;;;;;9.52;3.63;;;;;;;;;;4996548;28;20231;-64
2022/10/29 08:56:59;;;;;;;9.77;4.45;;;;;;;;;;4984669;28;20594;-64
2022/10/29 08:59:29;;;;;;;10.38;3.88;;;;;;;;;;4972677;28;20219;-65
2022/10/29 09:01:56;;;;;;;13.77;6.63;;;;;;;;;;4983636;28;20212;-64
2022/10/29 09:04:34;;;;;;;18.10;6.38;;;;;;;;;;4979598;28;22483;-64
2022/10/29 09:07:20;;;;;;;20.75;8.70;;;;;;;;;;4976931;28;20207;-65
2022/10/29 09:10:02;;;;;;;15.95;7.00;;;;;;;;;;4997817;28;20660;-63
2022/10/29 09:12:40;;;;;;;15.65;5.00;;;;;;;;;;4981537;28;20329;-64
2022/10/29 09:15:17;;;;;;;9.60;3.33;;;;;;;;;;4982790;28;20302;-63
2022/10/29 09:17:50;;;;;;;10.25;3.13;;;;;;;;;;4981325;28;20286;-64
2022/10/29 09:20:33;;;;;;;9.00;2.80;;;;;;;;;;4977543;28;20584;-63
2022/10/29 09:23:03;;;;;;;11.63;3.40;;;;;;;;;;4979798;28;20211;-65
2022/10/29 09:25:33;;;;;;;6.90;2.50;;;;;;;;;;4975946;28;20231;-65
2022/10/29 09:28:06;;;;;;;10.60;2.55;;;;;;;;;;4980112;28;20239;-64
2022/10/29 09:30:40;;;;;;;8.65;2.97;;;;;;;;;;4983142;28;20232;-64
2022/10/29 09:33:13;;;;;;;5.95;2.95;;;;;;;;;;4984225;28;20629;-64
2022/10/29 09:35:46;;;;;;;9.73;2.42;;;;;;;;;;4984894;28;20204;-64
2022/10/29 09:38:16;;;;;;;5.82;2.72;;;;;;;;;;4974091;28;20301;-64
2022/10/29 09:40:44;;;;;;;9.45;3.15;;;;;;;;;;4982632;28;20701;-65
2022/10/29 09:43:20;;;;;;;8.00;2.55;;;;;;;;;;4983595;28;20330;-65
2022/10/29 09:45:57;;;;;;;8.45;2.63;;;;;;;;;;4980910;28;20214;-65
2022/10/29 09:48:34;;;;;;;9.90;2.75;;;;;;;;;;4997529;28;20322;-64
2022/10/29 09:51:01;;;;;;;7.90;2.60;;;;;;;;;;4981738;28;20290;-65
2022/10/29 09:53:29;;;;;;;12.30;3.05;;;;;;;;;;4983500;28;20215;-64
2022/10/29 09:55:56;;;;;;;7.72;2.65;;;;;;;;;;4992515;28;20666;-65
2022/10/29 09:58:25;;;;;;;9.43;2.55;;;;;;;;;;4978003;28;20203;-64
2022/10/29 10:00:53;;;;;;;6.93;3.17;;;;;;;;;;4976877;28;20744;-65
2022/10/29 10:03:30;;;;;;;9.32;3.05;;;;;;;;;;4979502;28;20286;-65
2022/10/29 10:05:57;;;;;;;12.43;3.00;;;;;;;;;;4983838;28;20374;-64
2022/10/29 10:08:25;;;;;;;8.25;3.30;;;;;;;;;;4983995;28;20211;-64
2022/10/29 10:10:54;;;;;;;9.13;2.97;;;;;;;;;;4982462;28;20747;-64
2022/10/29 10:13:26;;;;;;;8.38;2.90;;;;;;;;;;4977210;28;20236;-65
2022/10/29 10:15:55;;;;;;;10.43;3.17;;;;;;;;;;4981411;28;20200;-64
2022/10/29 10:18:25;;;;;;;6.85;2.40;;;;;;;;;;4976383;28;20342;-63
2022/10/29 10:21:13;;;;;;;10.25;3.10;;;;;;;;;;4983458;28;20670;-65
2022/10/29 10:23:51;;;;;;;6.88;2.53;;;;;;;;;;4980142;28;20923;-65
2022/10/29 10:26:38;;;;;;;6.97;2.70;;;;;;;;;;4998528;28;20304;-64
2022/10/29 10:29:09;;;;;;;9.95;2.88;;;;;;;;;;4972830;28;20304;-65
2022/10/29 10:31:37;;;;;;;8.68;2.30;;;;;;;;;;4982974;28;20203;-65
2022/10/29 10:34:12;;;;;;;10.68;3.03;;;;;;;;;;4977291;28;20682;-65
2022/10/29 10:36:45;;;;;;;9.38;3.00;;;;;;;;;;4969910;28;20237;-64
2022/10/29 10:39:19;;;;;;;8.35;2.70;;;;;;;;;;4964330;28;20228;-65
2022/10/29 10:41:48;;;;;;;9.15;2.85;;;;;;;;;;4997757;28;20210;-64
2022/10/29 10:44:16;;;;;;;9.70;2.53;;;;;;;;;;4975950;28;20231;-65
2022/10/29 10:46:44;;;;;;;9.73;2.60;;;;;;;;;;4972715;28;20694;-63
2022/10/29 10:49:11;;;;;;;9.27;2.75;;;;;;;;;;4978789;28;20330;-65
2022/10/29 10:51:42;;;;;;;7.70;2.60;;;;;;;;;;4971824;28;20342;-64
2022/10/29 10:54:27;;;;;;;9.15;2.85;;;;;;;;;;4980316;28;20693;-63
2022/10/29 10:56:58;;;;;;;7.72;2.60;;;;;;;;;;4988768;28;20250;-64
2022/10/29 10:59:53;;;;;;;8.07;2.35;;;;;;;;;;4991181;28;20226;-64
2022/10/29 11:02:33;;;;;;;11.23;2.72;;;;;;;;;;4970719;28;20214;-64
2022/10/29 11:05:20;;;;;;;5.57;2.75;;;;;;;;;;4978556;28;20250;-64
2022/10/29 11:08:00;;;;;;;8.52;3.10;;;;;;;;;;4977651;28;20209;-64
2022/10/29 11:10:34;;;;;;;8.35;2.40;;;;;;;;;;4972900;28;20775;-64
2022/10/29 11:13:04;;;;;;;9.57;2.70;;;;;;;;;;4984625;28;20825;-65
2022/10/29 11:15:50;;;;;;;7.22;2.40;;;;;;;;;;4980812;28;20794;-64
2022/10/29 11:18:20;;;;;;;8.13;2.70;;;;;;;;;;4975778;28;20658;-64
2022/10/29 11:21:08;;;;;;;6.05;2.22;;;;;;;;;;4976818;28;20297;-65
2022/10/29 11:23:45;;;;;;;4.65;2.10;;;;;;;;;;4955360;28;20291;-65
2022/10/29 11:26:15;;;;;;;5.53;2.45;;;;;;;;;;4974338;28;20354;-65
2022/10/29 11:28:48;;;;;;;7.22;2.63;;;;;;;;;;4972947;28;20196;-65
2022/10/29 11:31:36;;;;;;;6.70;2.38;;;;;;;;;;4990366;28;20257;-65
2022/10/29 11:34:22;;;;;;;7.68;2.60;;;;;;;;;;4983915;28;20224;-65
2022/10/29 11:36:57;;;;;;;10.30;2.75;;;;;;;;;;4979368;28;20290;-65
2022/10/29 11:39:43;;;;;;;11.52;2.85;;;;;;;;;;4979672;28;20219;-65
2022/10/29 11:42:12;;;;;;;7.75;3.03;;;;;;;;;;4996431;28;20298;-64
2022/10/29 11:44:40;;;;;;;12.43;3.33;;;;;;;;;;4977276;28;20235;-65
2022/10/29 11:47:26;;;;;;;9.98;2.67;;;;;;;;;;5000153;28;20235;-65
2022/10/29 11:50:03;;;;;;;5.78;2.47;;;;;;;;;;4984638;28;20251;-65
2022/10/29 11:52:36;;;;;;;8.55;2.30;;;;;;;;;;4979837;28;20617;-65
2022/10/29 11:55:06;;;;;;;8.73;2.55;;;;;;;;;;4996636;28;20207;-65
2022/10/29 11:57:39;;;;;;;8.32;2.78;;;;;;;;;;5006886;28;20157;-64
2022/10/29 12:00:17;;;;;;;8.43;2.58;;;;;;;;;;5020268;28;20281;-65
2022/10/29 12:02:53;;;;;;;10.80;2.63;;;;;;;;;;4987944;28;20477;-67
2022/10/29 12:05:24;;;;;;;5.85;2.50;;;;;;;;;;4994114;28;21569;-64
2022/10/29 12:07:58;;;;;;;6.82;2.38;;;;;;;;;;4981228;28;20677;-65
2022/10/29 12:10:29;;;;;;;7.82;2.45;;;;;;;;;;4981474;28;20240;-65
2022/10/29 12:13:02;;;;;;;8.25;2.55;;;;;;;;;;4977284;28;20298;-65
2022/10/29 12:15:34;;;;;;;7.95;2.50;;;;;;;;;;4976412;28;20238;-64
2022/10/29 12:18:14;;;;;;;8.57;2.60;;;;;;;;;;4985540;28;20294;-65
2022/10/29 12:20:45;;;;;;;5.57;2.40;;;;;;;;;;5005091;28;20235;-65
2022/10/29 12:23:31;;;;;;;8.07;2.53;;;;;;;;;;4986525;28;20208;-65
2022/10/29 12:26:09;;;;;;;9.40;2.72;;;;;;;;;;4985146;28;20300;-65
2022/10/29 12:28:38;;;;;;;11.10;2.95;;;;;;;;;;4986136;28;20235;-65
2022/10/29 12:31:24;;;;;;;7.60;2.60;;;;;;;;;;4984040;28;20395;-65
2022/10/29 12:34:10;;;;;;;9.27;2.55;;;;;;;;;;4977803;28;20208;-65
2022/10/29 12:36:43;;;;;;;8.32;2.33;;;;;;;;;;5004605;28;20273;-64
2022/10/29 12:39:17;;;;;;;7.90;2.55;;;;;;;;;;4983578;28;20322;-65
2022/10/29 12:41:47;;;;;;;9.07;2.40;;;;;;;;;;4978126;28;20915;-65
2022/10/29 12:44:28;;;;;;;8.80;2.50;;;;;;;;;;4985971;28;20204;-65
2022/10/29 12:47:05;;;;;;;12.48;2.47;;;;;;;;;;4972709;28;20300;-64
2022/10/29 12:49:41;;;;;;;8.48;2.90;;;;;;;;;;4973660;28;20533;-64
2022/10/29 12:52:21;;;;;;;13.52;2.80;;;;;;;;;;4974044;28;20207;-64
2022/10/29 12:54:50;;;;;;;11.27;2.63;;;;;;;;;;4979887;28;20803;-65
2022/10/29 12:57:17;;;;;;;9.55;2.80;;;;;;;;;;4984022;28;20849;-64
2022/10/29 12:59:44;;;;;;;9.15;2.55;;;;;;;;;;4984491;28;20235;-64
2022/10/29 13:02:22;;;;;;;9.07;2.45;;;;;;;;;;4978435;28;20212;-67
2022/10/29 13:05:08;;;;;;;6.22;2.42;;;;;;;;;;4977641;28;20506;-67
2022/10/29 13:07:36;;;;;;;9.98;2.67;;;;;;;;;;4973596;28;20210;-67
2022/10/29 13:10:29;;;;;;;4.95;2.40;;;;;;;;;;4995074;28;20242;-66
2022/10/29 13:13:15;;;;;;;83.43;6.85;;;;;;;;;;4975225;28;20320;-66
2022/10/29 13:15:44;;;;;;;30.17;3.88;;;;;;;;;;4985644;28;20290;-67
2022/10/29 13:18:11;;;;;;;9.73;2.63;;;;;;;;;;4980715;28;20251;-65
2022/10/29 13:20:47;;;;;;;9.13;2.42;;;;;;;;;;4999014;28;20265;-66
2022/10/29 13:23:23;;;;;;;10.05;2.70;;;;;;;;;;4973552;28;20211;-66
2022/10/29 13:25:51;;;;;;;5.60;2.58;;;;;;;;;;4982169;28;20317;-66
2022/10/29 13:28:19;;;;;;;8.68;3.00;;;;;;;;;;4981220;28;20646;-66
2022/10/29 13:30:50;;;;;;;9.10;2.22;;;;;;;;;;4977171;28;20214;-65
2022/10/29 13:33:27;;;;;;;9.25;2.50;;;;;;;;;;4968946;28;20281;-67
2022/10/29 13:35:55;;;;;;;6.85;2.78;;;;;;;;;;4978200;28;21109;-67
2022/10/29 13:38:41;;;;;;;7.47;2.50;;;;;;;;;;4974600;28;20649;-65
2022/10/29 13:41:40;;;;;;;9.75;2.30;;;;;;;;;;4975836;28;20211;-66
2022/10/29 13:44:23;;;;;;;8.68;2.72;;;;;;;;;;4990983;28;20212;-66
2022/10/29 13:47:01;;;;;;;6.40;2.50;;;;;;;;;;4970326;28;20303;-66
2022/10/29 13:49:31;;;;;;;5.63;2.65;;;;;;;;;;4999936;28;20238;-66
2022/10/29 13:52:21;;;;;;;8.38;2.55;;;;;;;;;;4977010;28;20302;-66
2022/10/29 13:54:52;;;;;;;7.85;2.75;;;;;;;;;;4975218;28;20218;-66
2022/10/29 13:57:22;;;;;;;8.57;2.50;;;;;;;;;;4964388;28;20215;-65
2022/10/29 13:59:49;;;;;;;7.90;2.53;;;;;;;;;;4967392;28;20228;-65
2022/10/29 14:02:20;;;;;;;6.80;2.50;;;;;;;;;;4967295;28;20326;-66
2022/10/29 14:04:49;;;;;;;9.07;3.03;;;;;;;;;;4965644;28;20740;-66
2022/10/29 14:07:27;;;;;;;6.30;2.22;;;;;;;;;;4974479;28;20299;-67
2022/10/29 14:09:55;;;;;;;6.20;2.67;;;;;;;;;;4971851;28;21991;-63
2022/10/29 14:12:25;;;;;;;6.45;2.50;;;;;;;;;;4975192;28;20200;-67
2022/10/29 14:14:57;;;;;;;8.43;2.60;;;;;;;;;;4980375;28;20859;-66
2022/10/29 14:17:25;;;;;;;9.15;2.80;;;;;;;;;;4974217;28;20210;-67
2022/10/29 14:19:52;;;;;;;8.63;2.65;;;;;;;;;;4976957;28;20326;-66
2022/10/29 14:22:39;;;;;;;8.85;2.95;;;;;;;;;;4974642;28;20311;-66
2022/10/29 14:25:26;;;;;;;5.18;2.40;;;;;;;;;;4973430;28;20231;-65
2022/10/29 14:28:09;;;;;;;6.32;2.45;;;;;;;;;;4977895;28;20199;-66
2022/10/29 14:30:36;;;;;;;8.32;2.67;;;;;;;;;;4979017;28;20318;-66
2022/10/29 14:33:16;;;;;;;7.70;2.65;;;;;;;;;;4975966;28;20294;-65
2022/10/29 14:35:44;;;;;;;13.00;2.53;;;;;;;;;;5000308;28;20227;-66
2022/10/29 14:38:12;;;;;;;7.05;2.72;;;;;;;;;;4976372;28;20294;-66
2022/10/29 14:40:41;;;;;;;7.18;2.38;;;;;;;;;;4980815;28;20273;-67
2022/10/29 14:43:16;;;;;;;9.75;2.88;;;;;;;;;;4970272;28;20200;-65
2022/10/29 14:45:44;;;;;;;9.40;3.22;;;;;;;;;;4975109;28;20575;-66
2022/10/29 14:48:15;;;;;;;6.00;2.65;;;;;;;;;;4978876;28;20307;-66
2022/10/29 14:51:00;;;;;;;10.82;3.03;;;;;;;;;;4971864;28;20273;-66
2022/10/29 14:53:35;;;;;;;10.05;2.75;;;;;;;;;;4982249;28;20294;-66
2022/10/29 14:56:07;;;;;;;7.57;3.00;;;;;;;;;;4979503;28;20229;-66
2022/10/29 14:58:35;;;;;;;11.35;3.03;;;;;;;;;;4986133;28;20721;-66
2022/10/29 15:01:06;;;;;;;8.63;2.95;;;;;;;;;;4980038;28;20226;-66
2022/10/29 15:03:34;;;;;;;11.82;3.30;;;;;;;;;;4991181;28;20207;-66